sensor_id;sensor_type;location;lat;lon;timestamp;P1;durP1;ratioP1;P2;durP2;ratioP2
66384;SDS011;53426;55.872;37.462;2022-09-09T00:00:20;4.22;;;3.92;;
66384;SDS011;53426;55.872;37.462;2022-09-09T00:03:07;4.82;;;3.38;;
66384;SDS011;53426;55.872;37.462;2022-09-09T00:09:16;4.00;;;3.63;;
66384;SDS011;53426;55.872;37.462;2022-09-09T00:11:51;5.28;;;3.60;;
66384;SDS011;53426;55.872;37.462;2022-09-09T00:20:01;4.25;;;3.40;;
66384;SDS011;53426;55.872;37.462;2022-09-09T00:22:38;3.60;;;3.30;;
66384;SDS011;53426;55.872;37.462;2022-09-09T00:25:14;7.43;;;3.40;;
66384;SDS011;53426;55.872;37.462;2022-09-09T00:28:17;6.38;;;3.10;;
66384;SDS011;53426;55.872;37.462;2022-09-09T00:47:25;4.72;;;3.60;;
66384;SDS011;53426;55.872;37.462;2022-09-09T01:01:49;3.65;;;2.90;;
66384;SDS011;53426;55.872;37.462;2022-09-09T01:04:19;5.13;;;3.30;;
66384;SDS011;53426;55.872;37.462;2022-09-09T01:07:04;3.15;;;2.88;;
66384;SDS011;53426;55.872;37.462;2022-09-09T01:12:40;5.75;;;3.03;;
66384;SDS011;53426;55.872;37.462;2022-09-09T01:18:07;6.30;;;3.05;;
66384;SDS011;53426;55.872;37.462;2022-09-09T01:41:48;3.10;;;2.67;;
66384;SDS011;53426;55.872;37.462;2022-09-09T01:44:21;3.38;;;2.80;;
66384;SDS011;53426;55.872;37.462;2022-09-09T01:46:47;3.67;;;2.90;;
66384;SDS011;53426;55.872;37.462;2022-09-09T01:49:17;6.75;;;2.72;;
66384;SDS011;53426;55.872;37.462;2022-09-09T02:08:49;3.10;;;2.78;;
66384;SDS011;53426;55.872;37.462;2022-09-09T02:18:41;5.90;;;2.60;;
66384;SDS011;53426;55.872;37.462;2022-09-09T02:21:15;3.20;;;2.70;;
66384;SDS011;53426;55.872;37.462;2022-09-09T02:26:41;3.10;;;2.80;;
66384;SDS011;53426;55.872;37.462;2022-09-09T02:42:44;6.82;;;3.40;;
66384;SDS011;53426;55.872;37.462;2022-09-09T02:45:12;3.78;;;3.20;;
66384;SDS011;53426;55.872;37.462;2022-09-09T02:48:26;3.45;;;3.15;;
66384;SDS011;53426;55.872;37.462;2022-09-09T02:51:16;5.60;;;3.15;;
66384;SDS011;53426;55.872;37.462;2022-09-09T02:53:40;3.10;;;2.85;;
66384;SDS011;53426;55.872;37.462;2022-09-09T02:56:14;3.15;;;2.88;;
66384;SDS011;53426;55.872;37.462;2022-09-09T02:58:45;4.13;;;3.42;;
66384;SDS011;53426;55.872;37.462;2022-09-09T03:01:12;2.65;;;2.45;;
66384;SDS011;53426;55.872;37.462;2022-09-09T03:03:57;3.03;;;2.83;;
66384;SDS011;53426;55.872;37.462;2022-09-09T03:06:23;2.97;;;2.78;;
66384;SDS011;53426;55.872;37.462;2022-09-09T03:08:56;3.05;;;2.78;;
66384;SDS011;53426;55.872;37.462;2022-09-09T03:11:27;4.20;;;2.90;;
66384;SDS011;53426;55.872;37.462;2022-09-09T03:13:53;7.70;;;3.20;;
66384;SDS011;53426;55.872;37.462;2022-09-09T03:16:22;3.42;;;3.05;;
66384;SDS011;53426;55.872;37.462;2022-09-09T03:18:51;3.30;;;3.00;;
66384;SDS011;53426;55.872;37.462;2022-09-09T03:21:19;7.30;;;3.15;;
66384;SDS011;53426;55.872;37.462;2022-09-09T03:23:49;3.10;;;2.80;;
66384;SDS011;53426;55.872;37.462;2022-09-09T03:26:15;6.45;;;3.10;;
66384;SDS011;53426;55.872;37.462;2022-09-09T03:28:45;3.25;;;2.95;;
66384;SDS011;53426;55.872;37.462;2022-09-09T03:31:20;3.13;;;2.83;;
66384;SDS011;53426;55.872;37.462;2022-09-09T03:33:47;4.07;;;2.55;;
66384;SDS011;53426;55.872;37.462;2022-09-09T03:36:15;8.13;;;3.22;;
66384;SDS011;53426;55.872;37.462;2022-09-09T03:38:41;6.97;;;3.20;;
66384;SDS011;53426;55.872;37.462;2022-09-09T03:41:07;8.57;;;4.03;;
66384;SDS011;53426;55.872;37.462;2022-09-09T04:12:41;6.32;;;5.72;;
66384;SDS011;53426;55.872;37.462;2022-09-09T04:18:02;9.32;;;6.30;;
66384;SDS011;53426;55.872;37.462;2022-09-09T04:20:28;6.20;;;5.63;;
66384;SDS011;53426;55.872;37.462;2022-09-09T04:22:56;8.82;;;5.53;;
66384;SDS011;53426;55.872;37.462;2022-09-09T04:25:22;5.30;;;4.80;;
66384;SDS011;53426;55.872;37.462;2022-09-09T04:27:52;5.38;;;4.88;;
66384;SDS011;53426;55.872;37.462;2022-09-09T04:33:19;4.10;;;3.80;;
66384;SDS011;53426;55.872;37.462;2022-09-09T04:35:49;4.10;;;3.80;;
66384;SDS011;53426;55.872;37.462;2022-09-09T04:38:17;6.95;;;3.40;;
66384;SDS011;53426;55.872;37.462;2022-09-09T04:40:47;4.03;;;3.40;;
66384;SDS011;53426;55.872;37.462;2022-09-09T04:43:14;6.93;;;2.90;;
66384;SDS011;53426;55.872;37.462;2022-09-09T04:45:42;3.30;;;3.00;;
66384;SDS011;53426;55.872;37.462;2022-09-09T04:48:10;3.10;;;2.90;;
66384;SDS011;53426;55.872;37.462;2022-09-09T04:50:36;2.75;;;2.55;;
66384;SDS011;53426;55.872;37.462;2022-09-09T04:53:04;3.00;;;2.35;;
66384;SDS011;53426;55.872;37.462;2022-09-09T04:55:31;4.05;;;2.47;;
66384;SDS011;53426;55.872;37.462;2022-09-09T04:58:02;3.13;;;2.40;;
66384;SDS011;53426;55.872;37.462;2022-09-09T05:00:32;3.15;;;2.63;;
66384;SDS011;53426;55.872;37.462;2022-09-09T05:03:05;2.90;;;2.42;;
66384;SDS011;53426;55.872;37.462;2022-09-09T05:05:35;4.97;;;2.53;;
66384;SDS011;53426;55.872;37.462;2022-09-09T05:08:07;4.03;;;2.60;;
66384;SDS011;53426;55.872;37.462;2022-09-09T05:10:36;5.13;;;2.17;;
66384;SDS011;53426;55.872;37.462;2022-09-09T05:13:05;3.30;;;2.08;;
66384;SDS011;53426;55.872;37.462;2022-09-09T05:15:32;2.67;;;1.83;;
66384;SDS011;53426;55.872;37.462;2022-09-09T05:18:01;2.42;;;2.22;;
66384;SDS011;53426;55.872;37.462;2022-09-09T05:20:31;2.33;;;2.13;;
66384;SDS011;53426;55.872;37.462;2022-09-09T05:22:57;8.85;;;1.80;;
66384;SDS011;53426;55.872;37.462;2022-09-09T05:25:28;3.50;;;1.90;;
66384;SDS011;53426;55.872;37.462;2022-09-09T05:27:55;1.60;;;1.50;;
66384;SDS011;53426;55.872;37.462;2022-09-09T05:30:21;1.85;;;1.75;;
66384;SDS011;53426;55.872;37.462;2022-09-09T05:32:50;2.85;;;1.50;;
66384;SDS011;53426;55.872;37.462;2022-09-09T05:35:17;1.38;;;1.38;;
66384;SDS011;53426;55.872;37.462;2022-09-09T05:37:45;2.22;;;1.80;;
66384;SDS011;53426;55.872;37.462;2022-09-09T05:40:12;1.58;;;1.48;;
66384;SDS011;53426;55.872;37.462;2022-09-09T05:42:39;2.00;;;1.50;;
66384;SDS011;53426;55.872;37.462;2022-09-09T05:45:06;1.83;;;1.58;;
66384;SDS011;53426;55.872;37.462;2022-09-09T05:47:34;2.05;;;1.42;;
66384;SDS011;53426;55.872;37.462;2022-09-09T05:50:15;2.13;;;1.38;;
66384;SDS011;53426;55.872;37.462;2022-09-09T05:53:07;2.45;;;1.40;;
66384;SDS011;53426;55.872;37.462;2022-09-09T05:55:33;3.20;;;1.50;;
66384;SDS011;53426;55.872;37.462;2022-09-09T05:57:59;1.20;;;1.20;;
66384;SDS011;53426;55.872;37.462;2022-09-09T06:00:25;1.25;;;1.17;;
66384;SDS011;53426;55.872;37.462;2022-09-09T06:02:52;1.27;;;1.08;;
66384;SDS011;53426;55.872;37.462;2022-09-09T06:05:19;4.43;;;1.85;;
66384;SDS011;53426;55.872;37.462;2022-09-09T06:07:45;6.38;;;1.50;;
66384;SDS011;53426;55.872;37.462;2022-09-09T06:10:14;1.25;;;1.10;;
66384;SDS011;53426;55.872;37.462;2022-09-09T06:12:40;1.35;;;1.25;;
66384;SDS011;53426;55.872;37.462;2022-09-09T06:15:06;1.10;;;1.10;;
66384;SDS011;53426;55.872;37.462;2022-09-09T06:17:34;1.75;;;1.00;;
66384;SDS011;53426;55.872;37.462;2022-09-09T06:20:00;8.35;;;1.45;;
66384;SDS011;53426;55.872;37.462;2022-09-09T06:22:30;1.50;;;1.13;;
66384;SDS011;53426;55.872;37.462;2022-09-09T06:24:56;2.67;;;1.30;;
66384;SDS011;53426;55.872;37.462;2022-09-09T06:27:23;1.77;;;1.10;;
66384;SDS011;53426;55.872;37.462;2022-09-09T06:29:51;2.05;;;1.02;;
66384;SDS011;53426;55.872;37.462;2022-09-09T06:32:17;2.80;;;1.10;;
66384;SDS011;53426;55.872;37.462;2022-09-09T06:34:43;1.00;;;1.00;;
66384;SDS011;53426;55.872;37.462;2022-09-09T06:37:13;3.35;;;1.13;;
66384;SDS011;53426;55.872;37.462;2022-09-09T06:39:44;5.60;;;1.10;;
66384;SDS011;53426;55.872;37.462;2022-09-09T06:42:10;1.45;;;1.00;;
66384;SDS011;53426;55.872;37.462;2022-09-09T06:44:52;1.17;;;1.13;;
66384;SDS011;53426;55.872;37.462;2022-09-09T06:47:46;1.20;;;1.00;;
66384;SDS011;53426;55.872;37.462;2022-09-09T06:50:13;1.20;;;1.10;;
66384;SDS011;53426;55.872;37.462;2022-09-09T06:52:40;1.17;;;1.08;;
66384;SDS011;53426;55.872;37.462;2022-09-09T06:55:08;1.15;;;0.90;;
66384;SDS011;53426;55.872;37.462;2022-09-09T06:57:37;2.17;;;0.98;;
66384;SDS011;53426;55.872;37.462;2022-09-09T07:00:14;1.35;;;1.25;;
66384;SDS011;53426;55.872;37.462;2022-09-09T07:02:40;1.20;;;1.10;;
66384;SDS011;53426;55.872;37.462;2022-09-09T07:05:11;1.17;;;1.10;;
66384;SDS011;53426;55.872;37.462;2022-09-09T07:07:39;1.30;;;1.20;;
66384;SDS011;53426;55.872;37.462;2022-09-09T07:10:06;2.63;;;1.20;;
66384;SDS011;53426;55.872;37.462;2022-09-09T07:12:35;2.50;;;1.33;;
66384;SDS011;53426;55.872;37.462;2022-09-09T07:15:02;2.45;;;1.30;;
66384;SDS011;53426;55.872;37.462;2022-09-09T07:17:30;1.15;;;0.88;;
66384;SDS011;53426;55.872;37.462;2022-09-09T07:19:58;2.42;;;1.20;;
66384;SDS011;53426;55.872;37.462;2022-09-09T07:22:24;1.33;;;1.20;;
66384;SDS011;53426;55.872;37.462;2022-09-09T07:24:51;9.25;;;1.17;;
66384;SDS011;53426;55.872;37.462;2022-09-09T07:27:17;1.88;;;1.15;;
66384;SDS011;53426;55.872;37.462;2022-09-09T07:29:43;1.25;;;1.10;;
66384;SDS011;53426;55.872;37.462;2022-09-09T07:32:11;1.25;;;1.20;;
66384;SDS011;53426;55.872;37.462;2022-09-09T07:34:37;2.65;;;1.05;;
66384;SDS011;53426;55.872;37.462;2022-09-09T07:37:03;1.77;;;1.15;;
66384;SDS011;53426;55.872;37.462;2022-09-09T07:39:30;1.63;;;1.33;;
66384;SDS011;53426;55.872;37.462;2022-09-09T07:41:55;1.38;;;1.27;;
66384;SDS011;53426;55.872;37.462;2022-09-09T07:44:23;1.40;;;1.30;;
66384;SDS011;53426;55.872;37.462;2022-09-09T07:47:06;2.15;;;1.10;;
66384;SDS011;53426;55.872;37.462;2022-09-09T07:49:41;1.55;;;1.00;;
66384;SDS011;53426;55.872;37.462;2022-09-09T07:52:15;1.10;;;1.10;;
66384;SDS011;53426;55.872;37.462;2022-09-09T07:54:44;0.85;;;0.70;;
66384;SDS011;53426;55.872;37.462;2022-09-09T07:57:11;3.90;;;2.97;;
66384;SDS011;53426;55.872;37.462;2022-09-09T07:59:38;6.53;;;1.33;;
66384;SDS011;53426;55.872;37.462;2022-09-09T08:02:04;0.75;;;0.75;;
66384;SDS011;53426;55.872;37.462;2022-09-09T08:04:32;1.95;;;1.17;;
66384;SDS011;53426;55.872;37.462;2022-09-09T08:06:59;1.13;;;0.90;;
66384;SDS011;53426;55.872;37.462;2022-09-09T08:09:28;0.85;;;0.85;;
66384;SDS011;53426;55.872;37.462;2022-09-09T08:12:01;0.80;;;0.80;;
66384;SDS011;53426;55.872;37.462;2022-09-09T08:14:28;0.65;;;0.65;;
66384;SDS011;53426;55.872;37.462;2022-09-09T08:16:56;3.83;;;1.10;;
66384;SDS011;53426;55.872;37.462;2022-09-09T08:19:25;1.27;;;0.95;;
66384;SDS011;53426;55.872;37.462;2022-09-09T08:21:52;1.17;;;1.08;;
66384;SDS011;53426;55.872;37.462;2022-09-09T08:24:19;2.75;;;1.00;;
66384;SDS011;53426;55.872;37.462;2022-09-09T08:26:48;1.00;;;1.00;;
66384;SDS011;53426;55.872;37.462;2022-09-09T08:29:16;0.80;;;0.80;;
66384;SDS011;53426;55.872;37.462;2022-09-09T08:31:50;0.80;;;0.80;;
66384;SDS011;53426;55.872;37.462;2022-09-09T08:34:20;0.90;;;0.90;;
66384;SDS011;53426;55.872;37.462;2022-09-09T08:36:49;1.17;;;1.17;;
66384;SDS011;53426;55.872;37.462;2022-09-09T08:39:20;1.65;;;0.93;;
66384;SDS011;53426;55.872;37.462;2022-09-09T08:58:11;2.15;;;1.38;;
66384;SDS011;53426;55.872;37.462;2022-09-09T09:00:41;2.90;;;1.70;;
66384;SDS011;53426;55.872;37.462;2022-09-09T09:09:21;2.15;;;0.98;;
66384;SDS011;53426;55.872;37.462;2022-09-09T09:12:21;2.67;;;1.30;;
66384;SDS011;53426;55.872;37.462;2022-09-09T09:14:50;1.20;;;1.02;;
66384;SDS011;53426;55.872;37.462;2022-09-09T09:17:20;2.25;;;1.20;;
66384;SDS011;53426;55.872;37.462;2022-09-09T09:19:49;3.22;;;1.20;;
66384;SDS011;53426;55.872;37.462;2022-09-09T09:22:17;1.52;;;1.00;;
66384;SDS011;53426;55.872;37.462;2022-09-09T09:24:54;1.00;;;0.90;;
66384;SDS011;53426;55.872;37.462;2022-09-09T09:30:18;1.05;;;1.05;;
66384;SDS011;53426;55.872;37.462;2022-09-09T09:32:54;1.85;;;0.98;;
66384;SDS011;53426;55.872;37.462;2022-09-09T09:35:24;2.55;;;0.85;;
66384;SDS011;53426;55.872;37.462;2022-09-09T09:37:51;1.00;;;1.00;;
66384;SDS011;53426;55.872;37.462;2022-09-09T09:40:19;4.82;;;1.25;;
66384;SDS011;53426;55.872;37.462;2022-09-09T09:42:48;1.98;;;1.40;;
66384;SDS011;53426;55.872;37.462;2022-09-09T09:48:02;1.70;;;1.00;;
66384;SDS011;53426;55.872;37.462;2022-09-09T09:50:32;1.25;;;1.00;;
66384;SDS011;53426;55.872;37.462;2022-09-09T09:53:00;1.17;;;1.00;;
66384;SDS011;53426;55.872;37.462;2022-09-09T09:55:32;1.25;;;1.15;;
66384;SDS011;53426;55.872;37.462;2022-09-09T09:58:05;1.02;;;1.02;;
66384;SDS011;53426;55.872;37.462;2022-09-09T10:00:35;3.08;;;1.30;;
66384;SDS011;53426;55.872;37.462;2022-09-09T10:03:24;0.90;;;0.90;;
66384;SDS011;53426;55.872;37.462;2022-09-09T10:05:56;8.93;;;1.17;;
66384;SDS011;53426;55.872;37.462;2022-09-09T10:08:26;1.85;;;1.00;;
66384;SDS011;53426;55.872;37.462;2022-09-09T10:19:31;1.88;;;1.00;;
66384;SDS011;53426;55.872;37.462;2022-09-09T10:22:17;5.97;;;1.38;;
66384;SDS011;53426;55.872;37.462;2022-09-09T10:27:33;1.20;;;1.00;;
66384;SDS011;53426;55.872;37.462;2022-09-09T10:38:04;1.75;;;0.98;;
66384;SDS011;53426;55.872;37.462;2022-09-09T10:40:32;0.90;;;0.90;;
66384;SDS011;53426;55.872;37.462;2022-09-09T10:51:00;1.83;;;0.70;;
66384;SDS011;53426;55.872;37.462;2022-09-09T10:56:25;3.10;;;1.00;;
66384;SDS011;53426;55.872;37.462;2022-09-09T10:59:02;1.00;;;0.90;;
66384;SDS011;53426;55.872;37.462;2022-09-09T11:04:32;2.72;;;0.93;;
66384;SDS011;53426;55.872;37.462;2022-09-09T11:07:22;2.05;;;0.70;;
66384;SDS011;53426;55.872;37.462;2022-09-09T11:13:13;4.07;;;1.35;;
66384;SDS011;53426;55.872;37.462;2022-09-09T11:15:49;0.90;;;0.90;;
66384;SDS011;53426;55.872;37.462;2022-09-09T11:18:21;1.00;;;1.00;;
66384;SDS011;53426;55.872;37.462;2022-09-09T11:21:03;2.50;;;1.17;;
66384;SDS011;53426;55.872;37.462;2022-09-09T11:23:52;1.45;;;0.93;;
66384;SDS011;53426;55.872;37.462;2022-09-09T11:26:31;1.05;;;1.05;;
66384;SDS011;53426;55.872;37.462;2022-09-09T11:31:58;1.38;;;1.35;;
66384;SDS011;53426;55.872;37.462;2022-09-09T11:34:31;8.13;;;1.38;;
66384;SDS011;53426;55.872;37.462;2022-09-09T11:37:24;2.05;;;1.27;;
66384;SDS011;53426;55.872;37.462;2022-09-09T11:40:19;1.52;;;1.20;;
66384;SDS011;53426;55.872;37.462;2022-09-09T11:43:00;0.93;;;0.90;;
66384;SDS011;53426;55.872;37.462;2022-09-09T11:45:29;1.20;;;1.17;;
66384;SDS011;53426;55.872;37.462;2022-09-09T11:47:58;0.77;;;0.70;;
66384;SDS011;53426;55.872;37.462;2022-09-09T11:53:02;0.82;;;0.82;;
66384;SDS011;53426;55.872;37.462;2022-09-09T11:58:40;3.20;;;0.80;;
66384;SDS011;53426;55.872;37.462;2022-09-09T12:01:14;1.00;;;1.00;;
66384;SDS011;53426;55.872;37.462;2022-09-09T12:03:51;2.83;;;0.90;;
66384;SDS011;53426;55.872;37.462;2022-09-09T12:06:42;1.40;;;1.02;;
66384;SDS011;53426;55.872;37.462;2022-09-09T17:26:31;8.30;;;4.30;;
66384;SDS011;53426;55.872;37.462;2022-09-09T17:32:25;10.45;;;4.50;;
66384;SDS011;53426;55.872;37.462;2022-09-09T17:47:58;10.38;;;5.53;;
66384;SDS011;53426;55.872;37.462;2022-09-09T17:50:29;8.98;;;5.90;;
66384;SDS011;53426;55.872;37.462;2022-09-09T18:01:10;9.73;;;5.90;;
66384;SDS011;53426;55.872;37.462;2022-09-09T18:03:41;13.25;;;6.68;;
66384;SDS011;53426;55.872;37.462;2022-09-09T18:06:13;17.80;;;6.82;;
66384;SDS011;53426;55.872;37.462;2022-09-09T18:08:48;23.85;;;7.28;;
66384;SDS011;53426;55.872;37.462;2022-09-09T18:11:16;11.85;;;6.70;;
66384;SDS011;53426;55.872;37.462;2022-09-09T18:40:45;13.37;;;7.57;;
66384;SDS011;53426;55.872;37.462;2022-09-09T18:50:49;10.50;;;7.30;;
66384;SDS011;53426;55.872;37.462;2022-09-09T19:11:16;18.08;;;8.43;;
66384;SDS011;53426;55.872;37.462;2022-09-09T19:13:55;17.08;;;10.60;;
66384;SDS011;53426;55.872;37.462;2022-09-09T19:34:11;22.60;;;11.02;;
66384;SDS011;53426;55.872;37.462;2022-09-09T19:36:41;21.23;;;12.10;;
66384;SDS011;53426;55.872;37.462;2022-09-09T19:42:01;34.33;;;12.45;;
66384;SDS011;53426;55.872;37.462;2022-09-09T19:44:28;40.05;;;12.80;;
66384;SDS011;53426;55.872;37.462;2022-09-09T19:47:08;22.50;;;11.38;;
66384;SDS011;53426;55.872;37.462;2022-09-09T19:50:06;26.67;;;11.82;;
66384;SDS011;53426;55.872;37.462;2022-09-09T19:52:37;22.30;;;10.85;;
66384;SDS011;53426;55.872;37.462;2022-09-09T19:55:10;29.20;;;12.25;;
66384;SDS011;53426;55.872;37.462;2022-09-09T20:01:07;21.10;;;11.82;;
66384;SDS011;53426;55.872;37.462;2022-09-09T20:03:40;22.30;;;11.40;;
66384;SDS011;53426;55.872;37.462;2022-09-09T20:06:09;21.52;;;10.68;;
66384;SDS011;53426;55.872;37.462;2022-09-09T20:08:37;22.27;;;10.45;;
66384;SDS011;53426;55.872;37.462;2022-09-09T20:11:07;23.77;;;11.98;;
66384;SDS011;53426;55.872;37.462;2022-09-09T20:13:35;32.55;;;12.40;;
66384;SDS011;53426;55.872;37.462;2022-09-09T20:16:12;27.75;;;10.15;;
66384;SDS011;53426;55.872;37.462;2022-09-09T20:18:50;20.33;;;10.38;;
66384;SDS011;53426;55.872;37.462;2022-09-09T20:24:09;31.17;;;13.20;;
66384;SDS011;53426;55.872;37.462;2022-09-09T20:26:47;27.20;;;12.50;;
66384;SDS011;53426;55.872;37.462;2022-09-09T20:29:15;33.65;;;14.60;;
66384;SDS011;53426;55.872;37.462;2022-09-09T20:31:47;33.42;;;12.75;;
66384;SDS011;53426;55.872;37.462;2022-09-09T20:34:14;47.22;;;15.23;;
66384;SDS011;53426;55.872;37.462;2022-09-09T20:36:42;39.97;;;14.98;;
66384;SDS011;53426;55.872;37.462;2022-09-09T20:39:14;39.33;;;16.33;;
66384;SDS011;53426;55.872;37.462;2022-09-09T20:41:44;44.42;;;16.35;;
66384;SDS011;53426;55.872;37.462;2022-09-09T20:44:19;33.05;;;16.98;;
66384;SDS011;53426;55.872;37.462;2022-09-09T20:50:29;27.15;;;12.80;;
66384;SDS011;53426;55.872;37.462;2022-09-09T20:52:55;17.35;;;11.48;;
66384;SDS011;53426;55.872;37.462;2022-09-09T20:55:24;38.40;;;13.23;;
66384;SDS011;53426;55.872;37.462;2022-09-09T20:57:50;21.48;;;11.25;;
66384;SDS011;53426;55.872;37.462;2022-09-09T21:00:17;27.23;;;13.45;;
66384;SDS011;53426;55.872;37.462;2022-09-09T21:02:51;30.02;;;14.43;;
66384;SDS011;53426;55.872;37.462;2022-09-09T21:08:36;34.47;;;14.45;;
66384;SDS011;53426;55.872;37.462;2022-09-09T21:11:03;30.52;;;14.80;;
66384;SDS011;53426;55.872;37.462;2022-09-09T21:13:32;24.50;;;13.88;;
66384;SDS011;53426;55.872;37.462;2022-09-09T21:16:02;33.72;;;15.52;;
66384;SDS011;53426;55.872;37.462;2022-09-09T21:18:28;33.53;;;12.75;;
66384;SDS011;53426;55.872;37.462;2022-09-09T21:21:22;19.70;;;10.63;;
66384;SDS011;53426;55.872;37.462;2022-09-09T21:27:23;17.20;;;10.70;;
66384;SDS011;53426;55.872;37.462;2022-09-09T21:29:50;19.63;;;9.77;;
66384;SDS011;53426;55.872;37.462;2022-09-09T21:32:16;22.45;;;11.32;;
66384;SDS011;53426;55.872;37.462;2022-09-09T21:34:42;14.50;;;10.90;;
66384;SDS011;53426;55.872;37.462;2022-09-09T21:37:08;19.48;;;11.15;;
66384;SDS011;53426;55.872;37.462;2022-09-09T21:39:33;26.88;;;12.48;;
66384;SDS011;53426;55.872;37.462;2022-09-09T21:41:59;24.67;;;14.23;;
66384;SDS011;53426;55.872;37.462;2022-09-09T21:44:26;41.42;;;19.75;;
66384;SDS011;53426;55.872;37.462;2022-09-09T21:46:51;32.58;;;19.85;;
66384;SDS011;53426;55.872;37.462;2022-09-09T21:49:17;42.42;;;19.83;;
66384;SDS011;53426;55.872;37.462;2022-09-09T21:51:44;41.85;;;21.05;;
66384;SDS011;53426;55.872;37.462;2022-09-09T21:54:12;41.17;;;20.10;;
66384;SDS011;53426;55.872;37.462;2022-09-09T21:56:38;47.72;;;21.60;;
66384;SDS011;53426;55.872;37.462;2022-09-09T21:59:03;29.23;;;16.88;;
66384;SDS011;53426;55.872;37.462;2022-09-09T22:01:29;31.75;;;15.23;;
66384;SDS011;53426;55.872;37.462;2022-09-09T22:03:58;24.20;;;15.77;;
66384;SDS011;53426;55.872;37.462;2022-09-09T22:06:27;18.48;;;9.93;;
66384;SDS011;53426;55.872;37.462;2022-09-09T22:08:52;17.15;;;9.02;;
66384;SDS011;53426;55.872;37.462;2022-09-09T22:11:21;20.75;;;10.55;;
66384;SDS011;53426;55.872;37.462;2022-09-09T22:13:49;17.52;;;10.02;;
66384;SDS011;53426;55.872;37.462;2022-09-09T22:16:18;14.40;;;9.18;;
66384;SDS011;53426;55.872;37.462;2022-09-09T22:18:55;17.30;;;10.13;;
66384;SDS011;53426;55.872;37.462;2022-09-09T22:21:24;18.95;;;8.80;;
66384;SDS011;53426;55.872;37.462;2022-09-09T22:23:54;14.32;;;10.63;;
66384;SDS011;53426;55.872;37.462;2022-09-09T22:26:22;15.50;;;9.80;;
66384;SDS011;53426;55.872;37.462;2022-09-09T22:28:48;13.73;;;8.27;;
66384;SDS011;53426;55.872;37.462;2022-09-09T22:31:15;16.52;;;10.05;;
66384;SDS011;53426;55.872;37.462;2022-09-09T22:33:41;14.65;;;9.20;;
66384;SDS011;53426;55.872;37.462;2022-09-09T22:36:07;20.83;;;11.13;;
66384;SDS011;53426;55.872;37.462;2022-09-09T22:38:33;25.17;;;11.52;;
66384;SDS011;53426;55.872;37.462;2022-09-09T22:41:00;15.70;;;9.40;;
66384;SDS011;53426;55.872;37.462;2022-09-09T22:43:28;18.58;;;9.52;;
66384;SDS011;53426;55.872;37.462;2022-09-09T22:45:57;15.02;;;10.88;;
66384;SDS011;53426;55.872;37.462;2022-09-09T22:48:23;18.02;;;10.82;;
66384;SDS011;53426;55.872;37.462;2022-09-09T22:50:49;18.48;;;11.15;;
66384;SDS011;53426;55.872;37.462;2022-09-09T22:53:16;13.32;;;10.35;;
66384;SDS011;53426;55.872;37.462;2022-09-09T22:55:55;14.43;;;10.15;;
66384;SDS011;53426;55.872;37.462;2022-09-09T22:58:25;15.45;;;10.82;;
66384;SDS011;53426;55.872;37.462;2022-09-09T23:00:52;17.88;;;9.68;;
66384;SDS011;53426;55.872;37.462;2022-09-09T23:03:17;18.38;;;10.10;;
66384;SDS011;53426;55.872;37.462;2022-09-09T23:05:58;17.38;;;8.90;;
66384;SDS011;53426;55.872;37.462;2022-09-09T23:08:27;12.60;;;7.85;;
66384;SDS011;53426;55.872;37.462;2022-09-09T23:10:59;13.98;;;8.60;;
66384;SDS011;53426;55.872;37.462;2022-09-09T23:13:25;15.45;;;8.98;;
66384;SDS011;53426;55.872;37.462;2022-09-09T23:15:54;10.50;;;7.57;;
66384;SDS011;53426;55.872;37.462;2022-09-09T23:18:19;12.52;;;9.05;;
66384;SDS011;53426;55.872;37.462;2022-09-09T23:20:54;13.88;;;9.02;;
66384;SDS011;53426;55.872;37.462;2022-09-09T23:23:27;17.23;;;10.27;;
66384;SDS011;53426;55.872;37.462;2022-09-09T23:25:53;19.17;;;10.38;;
66384;SDS011;53426;55.872;37.462;2022-09-09T23:28:19;25.27;;;10.23;;
66384;SDS011;53426;55.872;37.462;2022-09-09T23:30:45;21.88;;;12.05;;
66384;SDS011;53426;55.872;37.462;2022-09-09T23:33:11;22.25;;;12.30;;
66384;SDS011;53426;55.872;37.462;2022-09-09T23:35:37;23.73;;;12.30;;
66384;SDS011;53426;55.872;37.462;2022-09-09T23:38:03;24.95;;;13.30;;
66384;SDS011;53426;55.872;37.462;2022-09-09T23:40:29;18.42;;;11.02;;
66384;SDS011;53426;55.872;37.462;2022-09-09T23:42:56;22.08;;;10.75;;
66384;SDS011;53426;55.872;37.462;2022-09-09T23:45:21;12.60;;;9.93;;
66384;SDS011;53426;55.872;37.462;2022-09-09T23:47:48;15.27;;;10.93;;
66384;SDS011;53426;55.872;37.462;2022-09-09T23:50:13;15.45;;;11.02;;
66384;SDS011;53426;55.872;37.462;2022-09-09T23:52:40;13.80;;;9.85;;
66384;SDS011;53426;55.872;37.462;2022-09-09T23:55:09;12.18;;;8.75;;
66384;SDS011;53426;55.872;37.462;2022-09-09T23:57:36;12.10;;;9.68;;
